Go Pro

CoreWeave (CRWV) Institutional Ownership

CoreWeave logo
$81.28 -3.61 (-4.26%)
As of 10:18 AM Eastern
This is a fair market value price provided by Massive. Learn more.

Institutional Ownership Changes (13F Filings) for CoreWeave (NASDAQ:CRWV)

Number of
Institutional Buyers
(last 12 months)
660
Total
Institutional Inflows
(last 12 months)
$15.57B
Number of
Institutional Sellers
(last 12 months)
149
Total
Institutional Outflows
(last 12 months)
$5.67B
Get CRWV Insider Trade Alerts

Want to know when executives and insiders are buying or selling CoreWeave stock? Sign up for InsiderTrades.com's daily newsletter to get the latest insider transactions delivered to your inbox daily.

SMS is currently available in Australia, Belgium, Canada, France, Germany, Ireland, Italy, New Zealand, the Netherlands, Singapore, South Africa, Spain, Switzerland, the United Kingdom, and the United States. By entering your phone number and clicking the sign-up button, you agree to receive periodic text messages from MarketBeat at the phone number you submitted, including texts that may be sent using an automatic telephone dialing system. Message and data rates may apply. Message frequency will vary. Messages will consist of stock alerts, news stories, and partner advertisements/offers. Consent is not a condition of the purchase of any goods or services. Text HELP for help/customer support. Unsubscribe at any time by replying "STOP" to any text message that you receive from MarketBeat or by visiting our mailing preferences page. Read our full terms of service and privacy policy.
Skip Chart & View Institutional Buying and Selling Data

CRWV Institutional Buying and Selling by Quarter

CoreWeave Major Shareholders & Ownership History

Reporting DateMajor Shareholder NameShares HeldMarket Value% of PortfolioQuarterly Change in SharesOwnership in CompanyDetails
8/27/2026 Corient Private Wealth LP13,252$1.32M0.0%+24.8%0.003%
8/26/2026 Amundi1,440,085$143.35M0.0%-56.2%0.314%
8/26/2026 HighTower Advisors LLC57,743$5.75M0.0%-2.3%0.013%
8/25/2026 VIRGINIA RETIREMENT SYSTEMS ET Al87,091$8.67M0.1%N/A0.019%
8/24/2026 California State Teachers Retirement System41,559,344$4.14B0.0%+12,886.8%9.057%
8/23/2026 Ameritas Advisory Services LLC33,082$3.29M0.1%+860.6%0.007%
8/23/2026 Operose Advisors LLC1,169$116K0.0%N/A0.000%
8/23/2026 HB Wealth Management LLC39,599$3.94M0.0%N/A0.009%
8/23/2026 Saudi Central Bank19,040$1.90M0.0%+119.9%0.004%
8/23/2026 Angeles Wealth Management LLC2,729$272K0.0%N/A0.001%
8/22/2026 Rose Capital Advisors LLC2,146$214K0.1%N/A0.000%
8/22/2026 William John Sempolinski2,550$254K0.1%N/A0.001%
8/22/2026 FirstWave Capital Management LLC23,373$2.33M1.0%N/A0.005%
8/22/2026 Situational Awareness LP7,479,558$744.52M3.8%-16.8%1.630%
8/22/2026 TD Waterhouse Canada Inc.73,470$7.31M0.0%+30.6%0.016%
8/22/2026 Concurrent Investment Advisors LLC26,239$2.61M0.0%-26.4%0.006%
8/22/2026 NEOS Investment Management LLC259,686$25.85M0.1%N/A0.057%
8/21/2026 Continuum Advisory LLC522$52K0.0%N/A0.000%
8/21/2026 Nykredit A S92,439$9.20M0.0%N/A0.020%
8/21/2026 B. Metzler seel. Sohn & Co. AG7,285$725K0.0%+36.1%0.002%
8/21/2026 Laidlaw Wealth Management LLC2,455$244K0.7%N/A0.001%
8/21/2026 Keeler Thomas Management LLC2,097$209K0.1%N/A0.000%
8/21/2026 Triumph Capital Management11,868$1.18M0.2%+119.4%0.003%
8/20/2026 Nwam LLC2,388$238K0.0%N/A0.001%
8/20/2026 Ancora Advisors LLC2,226$222K0.0%-19.9%0.000%
8/20/2026 Sigma Planning Corp14,141$1.41M0.0%+17.8%0.003%
8/20/2026 B & T Capital Management DBA Alpha Capital Management8,371$833K0.1%-29.2%0.002%
8/20/2026 GTS Securities LLC21,085$2.10M0.0%+636.0%0.005%
8/20/2026 Alyeska Investment Group L.P.10,891,267$1.08B2.8%+55.7%2.373%
8/20/2026 Northwestern Mutual Wealth Management Co.130,493$12.99M0.0%-3.7%0.028%
8/20/2026 Wedbush Securities Inc.2,908$289K0.0%-20.3%0.001%
8/20/2026 Hollencrest Capital Management1,952$194K0.0%-76.4%0.000%
8/19/2026 UBS AM a distinct business unit of UBS ASSET MANAGEMENT AMERICAS LLC1,415,103$140.86M0.0%+64.7%0.308%
8/19/2026 Royal London Asset Management Ltd.193,075$19.22M0.0%-2.0%0.042%
8/19/2026 Investors Asset Management of Georgia Inc. GA ADV5,545$552K0.2%+3.3%0.001%
8/19/2026 Van ECK Associates Corp16,382$1.63M0.0%N/A0.004%
8/19/2026 Monetta Financial Services Inc.8,500$846K0.6%N/A0.002%
8/19/2026 Nissay Asset Management Corp Japan109,284$10.88M0.0%+259.8%0.024%
8/19/2026 Wellington Management Group LLP17,183$1.71M0.0%+67.1%0.004%
8/18/2026 Public Employees Retirement System of Ohio156,145$15.54M0.0%N/A0.034%
Small Colorado Company (Backed by Sam Altman) Could Save U.S. Power Grid (Ad)

A small Colorado company has secured rights to technology that could prevent the U.S. public power grid from collapsing — and billionaire Sam Altman is now an investor. This under-the-radar firm is drawing serious attention from those watching the energy infrastructure space closely.tc pixel

Click here to learn this company's name for free today
8/17/2026 Corient Private Wealth LP14,379$1.43M0.0%+35.4%0.003%
8/15/2026 Freestone Grove Partners LP26,495$2.64M0.0%N/A0.006%
8/15/2026 Jupiter Topco LLC171,165$17.04M0.0%N/A0.037%
8/15/2026 Wedbush Fund Advisers LLC236,720$23.56M2.1%N/A0.052%
8/15/2026 Kinetic Partners Management LP904,900$90.07M2.2%+70.5%0.197%
8/14/2026 EFG International AG50,479$5.02M0.1%+2.5%0.011%
8/14/2026 Ancora Advisors LLC2,226$222K0.0%-19.9%0.000%
8/14/2026 White Knight Strategic Wealth Advisors LLC3,565$355K0.2%+7.1%0.001%
8/14/2026 Legal & General Group Plc1,332,209$132.61M0.0%+19.5%0.298%
8/14/2026 The Manufacturers Life Insurance Company 23,616$2.35M0.0%+7.0%0.005%
8/14/2026 Jones Financial Companies Lllp149,241$14.41M0.0%+33.1%0.033%
8/14/2026 Visionary Wealth Advisors5,227$520K0.0%-3.5%0.001%
8/13/2026 Allstate Corp26,011$2.59M0.0%-9.1%0.006%
8/13/2026 Cibc World Market Inc.47,818$4.76M0.0%+48.2%0.011%
8/13/2026 OMERS ADMINISTRATION Corp12,000$1.19M0.0%N/A0.003%
8/13/2026 Leigh Baldwin & CO. LLC2,130$212K0.1%N/A0.000%
8/13/2026 Osmosis Investment Management UK Ltd9,463$942K0.0%-48.5%0.002%
8/13/2026 Sanctuary Advisors LLC26,204$2.61M0.0%+36.8%0.006%
8/13/2026 Panview Capital Ltd614,485$61.17M10.8%-31.5%0.137%
8/13/2026 Connor Clark & Lunn Investment Management Ltd.55,712$5.55M0.0%+23.2%0.012%
8/13/2026 Arete Wealth Advisors LLC233,454$23.24M1.0%N/A0.052%
8/13/2026 Two Seas Capital LP153,139$15.24M0.3%N/A0.034%
8/12/2026 Kirtland Hills Capital Management LLC3,100$309K0.1%N/A0.001%
8/12/2026 Compass Financial Management LLC32,039$3.13M0.4%N/A0.007%
8/12/2026 Elevation Point Wealth Partners LLC9,041$900K0.0%+5.5%0.002%
8/12/2026 Daiichi Life Insurance Co. Ltd.9,422$938K0.0%N/A0.002%
8/12/2026 Stiles Financial Services Inc3,840$382K0.1%+27.8%0.001%
8/12/2026 Northwestern Mutual Wealth Management Co.130,493$12.99M0.0%-3.7%0.029%
8/12/2026 Gabelli Funds LLC37,490$3.73M0.0%+0.5%0.008%
8/12/2026 Gamco Investors INC. ET AL40,759$4.06M0.0%+0.5%0.009%
8/12/2026 Quantbot Technologies LP4,551$453K0.0%+140.2%0.001%
8/12/2026 AI Squared Management Ltd69,661$6.93M3.7%N/A0.016%
8/12/2026 Avanda Investment Management Pte. Ltd.16,400$1.63M0.5%N/A0.004%
8/12/2026 Korea Investment CORP75,330$7.50M0.0%-56.3%0.017%
8/12/2026 EP Wealth Advisors LLC26,091$2.60M0.0%+898.9%0.006%
8/12/2026 Rakuten Securities Inc.22,102$2.20M0.5%-38.5%0.005%
8/12/2026 Ieq Capital LLC59,313$5.90M0.0%+1,248.0%0.013%
8/12/2026 Burnham & Co LLC325$32K0.0%N/A0.000%
8/12/2026 Laidlaw Wealth Management LLC2,455$244K0.7%N/A0.001%
8/11/2026 Thoroughbred Financial Services LLC25,675$2.56M0.1%+8.0%0.006%
8/11/2026 OneAscent Financial Services LLC2,265$225K0.0%N/A0.001%
8/11/2026 Allworth Financial LP11,740$1.17M0.0%+16.7%0.003%
8/11/2026 B. Metzler seel. Sohn & Co. AG7,285$725K0.0%+36.1%0.002%
8/11/2026 Vise Technologies Inc.6,161$613K0.0%+36.6%0.001%
8/11/2026 E Fund Management Co. Ltd.15,682$1.56M0.0%N/A0.004%
8/11/2026 NWK Group Inc.2,091$208K0.1%N/A0.000%
8/11/2026 Edmond DE Rothschild Holding S.A.3,840$382K0.0%+86.0%0.001%
8/10/2026 Csenge Advisory Group4,186$417K0.0%+41.1%0.001%
8/10/2026 NewEdge Wealth LLC7,287$725K0.0%+2.6%0.002%
8/10/2026 Monetta Financial Services Inc.8,500$846K0.6%N/A0.002%
My top 3 AI picks for the next decade (Ad)

Alexander Green bought Apple in 1996, recommended Nvidia at a split-adjusted 66 cents in 2004, and picked up Amazon and Netflix under $3 per share in 2005. Now the chief investment strategist at The Oxford Club has identified three AI stocks he believes could be the most profitable investments of the next decade.tc pixel

Click here to get all three AI stock names from Alexander Green
8/10/2026 Essential Partners LLC299$30K0.0%N/A0.000%
8/10/2026 Danske Bank A S127,200$12.66M0.0%+30.2%0.028%
8/10/2026 Diversify Advisory Services LLC7,461$743K0.0%N/A0.002%
8/6/2026 Bank of New York Mellon Corp1,285,270$127.94M0.0%N/A0.287%
7/10/2026 Haven Capital Group Inc.2,436$242K0.2%N/A0.001%
7/10/2026 Dagco Inc.2,591$258K0.0%N/A0.001%
7/10/2026 Fiduciary Financial Group LLC73,317$7.30M0.8%N/A0.016%
7/10/2026 E. Ohman J or Asset Management AB7,040$701K0.0%+48.5%0.002%
7/10/2026 Wealthcare Advisory Partners LLC3,009$300K0.0%-21.7%0.001%
7/9/2026 Bay Rivers Group2,565$255K0.1%N/A0.001%


CRWV Institutional Ownership - Frequently Asked Questions

During the previous two years, 772 institutional investors and hedge funds held shares of CoreWeave. The most heavily invested institutionals were Magnetar Financial LLC ($4.88B), California State Teachers Retirement System ($4.14B), Nvidia Corp ($3.96B), Proficio Capital Partners LLC ($2.44B), Vanguard Group Inc. ($2.00B), Alyeska Investment Group L.P. ($1.08B), and Coatue Management LLC ($920.26M).Learn more on CoreWeave's institutional investors.

Of the 741 institutional investors that purchased CoreWeave's stock in the last 24 months, the following investors and hedge funds have bought the highest volume of shares: California State Teachers Retirement System ($41.56M), Vanguard Group Inc. ($24.38M), Proficio Capital Partners LLC ($17.85M), Alyeska Investment Group L.P. ($6.90M), Clear Street Group Inc. ($4.65M), Deutsche Bank AG ($3.80M), and Amundi ($3.28M).

Institutional investors have bought a total of 155,889,376 shares in the last 24 months. This purchase volume represents approximately $15.57B in transactions.

Of the 149 institutional investors that sold CoreWeave's stock in the last 24 months, the following investors and hedge funds have sold the highest volume of shares: Magnetar Financial LLC ($27.63M), Coatue Management LLC ($11.07M), Alyeska Investment Group L.P. ($1.90M), Amundi ($1.84M), Situational Awareness LP ($1.51M), Two Seas Capital LP ($1.35M), and Morgan Stanley ($1.12M).

Institutional investors have sold a total of 52,837,863 shares in the last 24 months. This volume of shares sold represents approximately $5.67B in transactions.



Institutional ownership data for NASDAQ:CRWV is compiled from quarterly 13F filings submitted to the U.S. Securities and Exchange Commission (SEC), with the most recent received on 8/27/2026. New 13F filings are added each quarter as they're published.
From Our Partners